Time;durP1;ratioP1;P1;durP2;ratioP2;P2;SDS_P1;SDS_P2;PMS_P1;PMS_P2;Temp;Humidity;BMP_temperature;BMP_pressure;BME280_temperature;BME280_humidity;BME280_pressure;Samples;Min_cycle;Max_cycle;Signal;HPM_P1;HPM_P2
2023/07/18 00:00:27;;;;;;;16.48;10.15;;;768.10;2432.00;;;;;;5095321;28;20063;-75
2023/07/18 00:02:53;;;;;;;19.85;10.18;;;768.10;2432.00;;;;;;5095650;28;20020;-72
2023/07/18 00:05:21;;;;;;;15.38;10.00;;;768.20;2432.00;;;;;;5095113;28;20024;-72
2023/07/18 00:07:47;;;;;;;12.05;9.20;;;768.10;2432.00;;;;;;5092964;28;20508;-72
2023/07/18 00:13:46;;;;;;;14.68;10.43;;;768.10;2432.00;;;;;;5181602;23;20111;-73
2023/07/18 00:16:11;;;;;;;13.18;10.18;;;743.30;2432.00;;;;;;5007846;28;20025;-74
2023/07/18 00:18:37;;;;;;;19.42;10.38;;;743.10;2432.00;;;;;;5015189;28;20152;-74
2023/07/18 00:21:05;;;;;;;15.45;10.27;;;743.00;2432.00;;;;;;5007328;28;20483;-75
2023/07/18 00:23:31;;;;;;;12.50;9.70;;;743.10;2432.00;;;;;;5008810;28;20025;-73
2023/07/18 00:25:56;;;;;;;12.63;9.55;;;743.10;2432.00;;;;;;5027414;28;20044;-74
2023/07/18 00:28:23;;;;;;;16.88;10.75;;;743.00;2432.00;;;;;;5027130;28;20021;-75
2023/07/18 00:30:48;;;;;;;19.23;10.77;;;743.00;2432.00;;;;;;5027930;28;20024;-80
2023/07/18 00:33:14;;;;;;;19.85;11.15;;;743.00;2432.00;;;;;;5025693;28;20033;-74
2023/07/18 00:35:40;;;;;;;17.20;11.00;;;743.00;2432.00;;;;;;5022199;28;20025;-75
2023/07/18 00:38:05;;;;;;;15.10;11.18;;;742.90;2432.00;;;;;;5020673;28;20014;-83
2023/07/18 00:40:31;;;;;;;14.52;11.45;;;742.80;2432.00;;;;;;5029642;28;20112;-75
2023/07/18 00:42:57;;;;;;;15.20;10.35;;;742.60;2432.00;;;;;;5031244;28;20053;-74
2023/07/18 00:45:23;;;;;;;16.73;10.30;;;742.50;2432.00;;;;;;5032338;28;20025;-73
2023/07/18 00:47:49;;;;;;;14.02;10.57;;;742.40;2432.00;;;;;;5023326;28;20022;-77
2023/07/18 00:50:20;;;;;;;17.05;11.45;;;717.70;2432.00;;;;;;5020732;28;20034;-74
2023/07/18 00:52:51;;;;;;;14.40;11.63;;;742.40;2432.00;;;;;;5021076;28;20467;-74
2023/07/18 00:55:17;;;;;;;15.02;10.70;;;742.50;2432.00;;;;;;5020155;28;20056;-75
2023/07/18 00:57:45;;;;;;;18.05;12.20;;;742.60;2432.00;;;;;;5019683;28;20030;-75
2023/07/18 01:00:12;;;;;;;16.35;10.98;;;742.50;2432.00;;;;;;5023110;28;20522;-73
2023/07/18 01:02:39;;;;;;;16.40;11.73;;;742.50;2432.00;;;;;;5022175;28;20025;-73
2023/07/18 01:05:06;;;;;;;22.10;12.32;;;717.70;2432.00;;;;;;5016176;28;20057;-73
2023/07/18 01:07:33;;;;;;;18.38;11.75;;;742.40;2432.00;;;;;;5018321;28;20156;-83
2023/07/18 01:10:24;;;;;;;15.48;12.07;;;742.40;2432.00;;;;;;5019189;28;20589;-73
2023/07/18 01:12:55;;;;;;;16.83;11.63;;;742.50;2432.00;;;;;;5020603;28;20112;-74
2023/07/18 01:15:21;;;;;;;14.35;10.90;;;742.40;2432.00;;;;;;5021210;28;20042;-75
2023/07/18 01:17:49;;;;;;;14.40;11.70;;;742.40;2432.00;;;;;;5023385;28;20113;-74
2023/07/18 01:20:27;;;;;;;18.48;12.18;;;742.50;2432.00;;;;;;5012674;28;20052;-73
2023/07/18 01:22:55;;;;;;;14.27;11.98;;;742.50;2432.00;;;;;;5009357;28;20396;-73
2023/07/18 01:25:22;;;;;;;17.55;13.38;;;742.50;2432.00;;;;;;5022797;28;20056;-74
2023/07/18 01:27:50;;;;;;;19.73;12.23;;;742.40;2432.00;;;;;;5023693;28;20052;-74
2023/07/18 01:30:20;;;;;;;15.95;12.38;;;742.40;2432.00;;;;;;5024102;28;20026;-71
2023/07/18 01:32:48;;;;;;;15.55;12.25;;;742.40;2432.00;;;;;;5023591;28;20033;-72
2023/07/18 01:35:15;;;;;;;17.98;12.70;;;717.70;2432.00;;;;;;5001531;28;20026;-72
2023/07/18 01:37:44;;;;;;;16.38;12.35;;;717.70;2432.00;;;;;;5021300;28;20089;-72
2023/07/18 01:40:15;;;;;;;17.05;12.90;;;717.70;2432.00;;;;;;5022686;28;20026;-82
2023/07/18 01:42:42;;;;;;;16.92;12.77;;;717.60;2432.00;;;;;;5018932;28;20034;-73
2023/07/18 01:45:09;;;;;;;19.35;13.55;;;717.60;2432.00;;;;;;5015869;28;20061;-81
2023/07/18 01:47:36;;;;;;;19.08;12.55;;;717.60;2432.00;;;;;;5021184;28;20033;-72
2023/07/18 01:50:04;;;;;;;17.98;12.98;;;742.40;2432.00;;;;;;5023734;28;20032;-71
2023/07/18 01:52:31;;;;;;;16.45;12.75;;;717.50;2432.00;;;;;;5015385;28;20049;-72
2023/07/18 01:55:00;;;;;;;18.00;12.00;;;717.50;2432.00;;;;;;5023939;28;20432;-71
2023/07/18 01:57:30;;;;;;;16.60;11.73;;;717.50;2432.00;;;;;;5021140;28;20029;-73
2023/07/18 01:59:56;;;;;;;19.10;13.32;;;717.50;2432.00;;;;;;5017888;28;20029;-71
2023/07/18 02:02:21;;;;;;;18.30;13.15;;;717.40;2432.00;;;;;;5031236;28;20026;-72
2023/07/18 02:04:49;;;;;;;15.35;11.75;;;717.40;2432.00;;;;;;5024898;28;20432;-73
2023/07/18 02:07:15;;;;;;;15.15;13.18;;;717.40;2432.00;;;;;;5003816;28;20022;-71
2023/07/18 02:09:41;;;;;;;18.17;13.30;;;717.20;2432.00;;;;;;5020280;28;20036;-71
2023/07/18 02:12:08;;;;;;;16.98;12.40;;;716.90;2432.00;;;;;;5006452;28;20018;-71
2023/07/18 02:14:36;;;;;;;16.15;13.82;;;716.90;2432.00;;;;;;5018048;28;20085;-76
2023/07/18 02:17:02;;;;;;;15.43;12.88;;;716.90;2432.00;;;;;;5025897;28;20017;-71
2023/07/18 02:19:28;;;;;;;14.50;12.77;;;716.80;2432.00;;;;;;5013162;28;20045;-71
2023/07/18 02:21:54;;;;;;;19.77;13.55;;;716.90;2432.00;;;;;;5019619;28;20063;-73
2023/07/18 02:24:19;;;;;;;17.85;13.57;;;716.90;2432.00;;;;;;5023183;28;20025;-71
2023/07/18 02:26:45;;;;;;;20.60;13.80;;;716.80;2432.00;;;;;;5017112;28;20100;-72
2023/07/18 02:29:13;;;;;;;15.35;13.55;;;692.00;2432.00;;;;;;5021372;28;20467;-70
2023/07/18 02:31:39;;;;;;;20.23;13.82;;;691.80;2432.00;;;;;;5018187;28;20034;-72
2023/07/18 02:34:05;;;;;;;21.27;13.70;;;691.90;2432.00;;;;;;5015743;28;20049;-71
2023/07/18 02:36:32;;;;;;;18.35;14.07;;;691.60;2432.00;;;;;;5022868;28;20030;-70
2023/07/18 02:38:58;;;;;;;19.65;14.00;;;691.30;2432.00;;;;;;5026458;28;20045;-81
2023/07/18 02:41:24;;;;;;;21.80;14.65;;;691.40;2432.00;;;;;;5028911;28;20029;-72
2023/07/18 02:43:49;;;;;;;16.70;13.70;;;691.30;2432.00;;;;;;5023415;28;20365;-71
2023/07/18 02:46:15;;;;;;;15.07;12.73;;;691.30;2432.00;;;;;;5025282;28;20032;-72
2023/07/18 02:48:42;;;;;;;19.45;14.25;;;691.50;2432.00;;;;;;5013554;28;20033;-74
2023/07/18 02:51:07;;;;;;;21.95;14.27;;;691.40;2432.00;;;;;;5023813;28;20052;-71
2023/07/18 02:53:33;;;;;;;20.15;14.30;;;691.50;2432.00;;;;;;5024735;28;20479;-74
2023/07/18 02:55:58;;;;;;;17.92;13.65;;;691.50;2432.00;;;;;;5027042;28;20499;-71
2023/07/18 02:58:24;;;;;;;15.55;13.35;;;691.50;2432.00;;;;;;5024431;28;20071;-72
2023/07/18 03:00:53;;;;;;;16.83;14.00;;;691.60;2432.00;;;;;;5024862;28;20040;-76
2023/07/18 03:03:18;;;;;;;20.85;14.50;;;691.60;2432.00;;;;;;5022979;28;20026;-72
2023/07/18 03:05:44;;;;;;;17.70;14.85;;;691.70;2432.00;;;;;;5021895;28;20037;-71
2023/07/18 03:08:10;;;;;;;23.65;14.40;;;691.70;2432.00;;;;;;5023579;28;20053;-72
2023/07/18 03:10:37;;;;;;;18.85;15.23;;;691.50;2432.00;;;;;;5029459;28;20498;-73
2023/07/18 03:13:03;;;;;;;18.42;14.68;;;691.40;2432.00;;;;;;5001144;28;20073;-71
2023/07/18 03:15:29;;;;;;;17.45;15.60;;;691.40;2432.00;;;;;;5026354;28;20489;-74
2023/07/18 03:17:54;;;;;;;21.42;15.57;;;691.50;2432.00;;;;;;5025055;28;20014;-71
2023/07/18 03:20:20;;;;;;;18.02;16.05;;;691.50;2432.00;;;;;;5026111;28;20121;-72
2023/07/18 03:22:47;;;;;;;18.33;15.68;;;691.40;2432.00;;;;;;5025271;28;20484;-71
2023/07/18 03:25:13;;;;;;;19.05;16.95;;;691.50;2432.00;;;;;;5024475;28;20034;-72
2023/07/18 03:27:39;;;;;;;18.73;15.30;;;691.30;2432.00;;;;;;5023741;28;20021;-76
2023/07/18 03:30:06;;;;;;;18.20;15.20;;;691.30;2432.00;;;;;;5026048;28;20026;-74
2023/07/18 03:32:33;;;;;;;21.38;15.85;;;691.30;2432.00;;;;;;5023063;28;20455;-71
2023/07/18 03:34:59;;;;;;;17.90;15.18;;;691.20;2432.00;;;;;;5025408;28;20014;-71
2023/07/18 03:37:28;;;;;;;20.63;15.00;;;666.50;2432.00;;;;;;5026042;28;20514;-71
2023/07/18 03:39:53;;;;;;;20.20;16.65;;;666.50;2432.00;;;;;;5021230;28;20065;-72
2023/07/18 03:42:20;;;;;;;18.27;14.98;;;691.20;2432.00;;;;;;5009401;28;20112;-72
2023/07/18 03:44:46;;;;;;;19.60;15.25;;;691.20;2432.00;;;;;;5022154;28;20018;-73
2023/07/18 03:47:11;;;;;;;19.05;15.18;;;691.30;2432.00;;;;;;5024118;28;20028;-71
2023/07/18 03:49:37;;;;;;;15.98;14.18;;;691.30;2432.00;;;;;;5027541;28;20045;-82
2023/07/18 03:52:04;;;;;;;27.10;16.48;;;691.40;2432.00;;;;;;5024452;28;20040;-71
2023/07/18 03:54:32;;;;;;;31.92;16.83;;;691.40;2432.00;;;;;;5022643;28;20034;-72
2023/07/18 03:56:57;;;;;;;21.23;15.70;;;691.50;2432.00;;;;;;5024097;28;20053;-71
2023/07/18 03:59:23;;;;;;;20.33;14.63;;;691.50;2432.00;;;;;;5020427;28;20095;-72
2023/07/18 04:01:49;;;;;;;15.95;14.25;;;691.30;2432.00;;;;;;5026863;28;20013;-71
2023/07/18 04:04:15;;;;;;;16.50;14.75;;;691.30;2432.00;;;;;;5025890;28;20030;-78
2023/07/18 04:06:43;;;;;;;25.08;16.48;;;691.30;2432.00;;;;;;5019198;28;20022;-72
2023/07/18 04:09:10;;;;;;;21.75;16.30;;;691.50;2432.00;;;;;;5016093;28;20037;-71
2023/07/18 04:11:35;;;;;;;17.88;15.13;;;691.60;2432.00;;;;;;5023698;28;20079;-74
2023/07/18 04:14:01;;;;;;;23.83;15.13;;;691.70;2432.00;;;;;;5020625;28;20520;-71
2023/07/18 04:16:27;;;;;;;24.67;16.27;;;691.70;2432.00;;;;;;5025871;28;20025;-71
2023/07/18 04:18:52;;;;;;;20.48;14.40;;;691.70;2432.00;;;;;;5024278;28;20036;-71
2023/07/18 04:21:18;;;;;;;21.98;16.38;;;691.70;2432.00;;;;;;5028347;28;20026;-72
2023/07/18 04:23:44;;;;;;;19.52;15.35;;;691.70;2432.00;;;;;;5028158;28;20502;-71
2023/07/18 04:26:12;;;;;;;19.27;15.02;;;691.70;2432.00;;;;;;5025823;28;20034;-71
2023/07/18 04:28:38;;;;;;;21.10;15.95;;;691.80;2432.00;;;;;;5027861;28;20025;-73
2023/07/18 04:31:05;;;;;;;18.08;15.52;;;691.70;2432.00;;;;;;5027302;28;20474;-71
2023/07/18 04:33:37;;;;;;;21.05;15.35;;;691.60;2432.00;;;;;;5022815;28;20029;-81
2023/07/18 04:36:04;;;;;;;23.50;18.33;;;691.70;2432.00;;;;;;5004755;28;20034;-80
2023/07/18 04:38:30;;;;;;;30.92;19.02;;;691.50;2432.00;;;;;;5026516;28;20025;-71
2023/07/18 04:40:56;;;;;;;26.20;17.48;;;691.40;2432.00;;;;;;5022011;28;20030;-70
2023/07/18 04:43:22;;;;;;;21.73;17.00;;;691.60;2432.00;;;;;;5031042;28;20099;-70
2023/07/18 04:45:48;;;;;;;20.88;17.63;;;691.60;2432.00;;;;;;5034295;28;20061;-71
2023/07/18 04:48:15;;;;;;;25.40;17.25;;;691.60;2432.00;;;;;;5034537;28;20025;-71
2023/07/18 04:50:42;;;;;;;22.85;17.85;;;691.40;2432.00;;;;;;5034035;28;20357;-71
2023/07/18 04:53:08;;;;;;;26.98;17.48;;;691.50;2432.00;;;;;;5033855;28;20475;-71
2023/07/18 04:55:34;;;;;;;21.38;16.75;;;691.70;2432.00;;;;;;5033881;28;20589;-73
2023/07/18 04:58:01;;;;;;;61.22;20.48;;;691.80;2432.00;;;;;;5033461;28;20021;-74
2023/07/18 05:00:28;;;;;;;22.90;16.02;;;691.80;2432.00;;;;;;5033690;28;20029;-71
2023/07/18 05:02:53;;;;;;;21.85;16.85;;;691.80;2432.00;;;;;;5033296;28;20025;-71
2023/07/18 05:05:19;;;;;;;17.65;15.50;;;691.80;2432.00;;;;;;5034279;28;20387;-71
2023/07/18 05:07:47;;;;;;;21.85;14.77;;;691.80;2432.00;;;;;;5033477;28;20388;-70
2023/07/18 05:10:13;;;;;;;17.90;13.43;;;692.00;2432.00;;;;;;5033876;28;20036;-75
2023/07/18 05:12:39;;;;;;;20.27;13.75;;;692.00;2432.00;;;;;;5033484;28;20057;-69
2023/07/18 05:15:06;;;;;;;17.17;12.77;;;692.10;2432.00;;;;;;5033615;28;20037;-78
2023/07/18 05:17:31;;;;;;;17.33;12.55;;;692.10;2432.00;;;;;;5033550;28;20495;-70
2023/07/18 05:19:57;;;;;;;13.73;11.10;;;716.80;2432.00;;;;;;5033050;28;20095;-71
2023/07/18 05:22:23;;;;;;;13.93;11.10;;;692.10;2432.00;;;;;;5033348;28;20517;-71
2023/07/18 05:24:48;;;;;;;10.38;8.93;;;716.80;2432.00;;;;;;5033266;28;20546;-80
2023/07/18 05:27:14;;;;;;;11.70;9.35;;;716.90;2432.00;;;;;;5033842;28;20018;-70
2023/07/18 05:29:40;;;;;;;14.43;9.73;;;717.00;2432.00;;;;;;5033086;28;20021;-76
2023/07/18 05:32:06;;;;;;;13.25;9.38;;;717.00;2432.00;;;;;;5032585;28;20498;-70
2023/07/18 05:34:33;;;;;;;14.52;10.98;;;717.10;2432.00;;;;;;5029100;28;20116;-70
2023/07/18 05:37:00;;;;;;;17.25;11.80;;;717.10;2432.00;;;;;;5033262;28;20018;-74
2023/07/18 05:39:29;;;;;;;13.13;10.90;;;717.00;2432.00;;;;;;5033819;28;20493;-72
2023/07/18 05:41:55;;;;;;;16.63;13.02;;;717.00;2432.00;;;;;;5032961;28;20051;-69
2023/07/18 05:44:20;;;;;;;14.15;12.35;;;717.00;2432.00;;;;;;5015242;28;20029;-70
2023/07/18 05:46:46;;;;;;;15.07;12.13;;;717.10;2432.00;;;;;;5032915;28;20041;-71
2023/07/18 05:49:12;;;;;;;15.43;13.07;;;717.10;2432.00;;;;;;5015253;28;20533;-70
2023/07/18 05:51:38;;;;;;;13.52;12.15;;;717.20;2432.00;;;;;;5031255;28;20033;-70
2023/07/18 05:54:07;;;;;;;14.23;12.13;;;717.20;2432.00;;;;;;5033347;28;20029;-74
2023/07/18 05:56:33;;;;;;;13.95;10.43;;;717.40;2432.00;;;;;;5015290;28;20111;-74
2023/07/18 05:59:05;;;;;;;12.50;10.23;;;717.40;2432.00;;;;;;5032624;28;20052;-72
2023/07/18 06:01:30;;;;;;;15.63;10.75;;;717.40;2432.00;;;;;;5015337;28;20021;-70
2023/07/18 06:03:57;;;;;;;13.60;11.18;;;717.30;2432.00;;;;;;5032442;28;20037;-69
2023/07/18 06:06:23;;;;;;;11.57;10.38;;;717.40;2432.00;;;;;;5015086;28;20030;-71
2023/07/18 06:08:49;;;;;;;18.02;11.75;;;717.50;2432.00;;;;;;5033298;28;20075;-72
2023/07/18 06:11:15;;;;;;;16.25;11.95;;;717.50;2432.00;;;;;;5032688;28;20037;-71
2023/07/18 06:13:41;;;;;;;11.27;10.07;;;717.60;2432.00;;;;;;5031290;28;20115;-75
2023/07/18 06:16:08;;;;;;;12.07;10.25;;;717.70;2432.00;;;;;;5032345;28;20022;-71
2023/07/18 06:18:35;;;;;;;11.82;9.80;;;717.70;2432.00;;;;;;5011737;28;20080;-78
2023/07/18 06:21:02;;;;;;;11.77;9.27;;;742.40;2432.00;;;;;;5013424;28;20042;-73
2023/07/18 06:23:29;;;;;;;10.77;9.52;;;742.40;2432.00;;;;;;5032808;28;20022;-70
2023/07/18 06:25:55;;;;;;;12.75;9.13;;;742.40;2432.00;;;;;;5015079;28;20112;-71
2023/07/18 06:28:21;;;;;;;13.27;9.63;;;742.50;2432.00;;;;;;5032299;28;20121;-71
2023/07/18 06:30:47;;;;;;;11.63;9.45;;;742.60;2432.00;;;;;;5032102;28;20429;-71
2023/07/18 06:33:13;;;;;;;10.68;9.32;;;742.60;2432.00;;;;;;5031749;28;20025;-70
2023/07/18 06:35:40;;;;;;;11.98;8.77;;;742.80;2432.00;;;;;;5032371;28;20059;-69
2023/07/18 06:38:05;;;;;;;13.93;9.75;;;742.80;2432.00;;;;;;5032027;28;20095;-74
2023/07/18 06:40:31;;;;;;;12.70;9.38;;;742.90;2432.00;;;;;;5033067;28;20542;-70
2023/07/18 06:42:57;;;;;;;16.50;9.52;;;742.90;2432.00;;;;;;5032214;28;20411;-72
2023/07/18 06:45:24;;;;;;;9.90;8.85;;;742.90;2432.00;;;;;;5031886;28;20049;-71
2023/07/18 06:47:49;;;;;;;12.63;9.40;;;743.10;2432.00;;;;;;5029063;28;20044;-69
2023/07/18 06:50:15;;;;;;;12.73;9.77;;;743.00;2432.00;;;;;;5032296;28;20533;-69
2023/07/18 06:52:41;;;;;;;9.88;8.85;;;743.10;2432.00;;;;;;5004135;28;20065;-73
2023/07/18 06:55:10;;;;;;;12.95;9.68;;;743.30;2432.00;;;;;;5014603;28;20024;-71
2023/07/18 06:57:36;;;;;;;10.95;9.20;;;743.30;2432.00;;;;;;5014308;28;20064;-70
2023/07/18 07:00:06;;;;;;;13.80;9.38;;;743.30;2432.00;;;;;;5031081;28;20487;-77
2023/07/18 07:02:33;;;;;;;13.43;9.75;;;768.10;2432.00;;;;;;5030659;28;20555;-75
2023/07/18 07:04:59;;;;;;;11.77;9.13;;;768.10;2432.00;;;;;;5031957;28;20037;-74
2023/07/18 07:07:26;;;;;;;13.30;8.48;;;768.40;2432.00;;;;;;5031980;28;20060;-73
2023/07/18 07:09:52;;;;;;;15.30;9.18;;;768.40;2432.00;;;;;;5032811;28;20022;-78
2023/07/18 07:12:18;;;;;;;11.40;9.27;;;768.80;2432.00;;;;;;5031857;28;20155;-70
2023/07/18 07:14:43;;;;;;;12.32;7.97;;;768.90;2432.00;;;;;;5031649;28;20045;-69
2023/07/18 07:17:09;;;;;;;8.90;7.93;;;794.50;2406.40;;;;;;5031942;28;20550;-80
2023/07/18 07:19:35;;;;;;;9.57;8.30;;;819.20;2406.40;;;;;;5031936;28;20391;-74
2023/07/18 07:22:01;;;;;;;10.13;7.93;;;819.90;2252.80;;;;;;5022981;28;20031;-72
2023/07/18 07:24:27;;;;;;;10.77;8.25;;;819.60;2304.00;;;;;;5033696;28;20378;-72
2023/07/18 07:26:52;;;;;;;9.90;8.77;;;819.20;2252.80;;;;;;5035604;28;20022;-72
2023/07/18 07:29:18;;;;;;;8.88;7.97;;;794.40;2278.40;;;;;;5034739;28;20105;-70
2023/07/18 07:31:44;;;;;;;11.77;8.23;;;819.80;2227.20;;;;;;5027887;28;20438;-72
2023/07/18 07:34:10;;;;;;;9.45;8.55;;;819.70;2176.00;;;;;;5035320;28;20026;-73
2023/07/18 07:36:36;;;;;;;11.27;8.13;;;819.30;2176.00;;;;;;5035477;28;20049;-71
2023/07/18 07:39:03;;;;;;;8.65;6.80;;;819.90;2073.60;;;;;;5035778;28;20075;-75
2023/07/18 07:41:29;;;;;;;9.52;7.40;;;820.10;2099.20;;;;;;5035271;28;20029;-75
2023/07/18 07:43:54;;;;;;;8.63;7.22;;;820.10;2048.00;;;;;;5035296;28;20032;-76
2023/07/18 07:46:20;;;;;;;8.60;7.65;;;819.60;2099.20;;;;;;5035253;28;20037;-76
2023/07/18 07:48:46;;;;;;;8.95;7.28;;;819.70;2099.20;;;;;;5035045;28;20025;-75
2023/07/18 07:51:18;;;;;;;8.15;7.15;;;819.60;2099.20;;;;;;5035717;28;20106;-70
2023/07/18 07:53:43;;;;;;;8.93;7.07;;;819.60;2124.80;;;;;;5032608;28;20052;-69
2023/07/18 07:56:09;;;;;;;9.35;7.40;;;819.90;2099.20;;;;;;5035138;28;20033;-76
2023/07/18 07:58:36;;;;;;;11.20;6.75;;;844.90;2048.00;;;;;;5034931;28;20061;-70
2023/07/18 08:01:03;;;;;;;8.93;7.40;;;844.80;2073.60;;;;;;5035161;28;20077;-70
2023/07/18 08:03:28;;;;;;;11.07;6.88;;;845.20;2048.00;;;;;;5032965;28;20029;-76
2023/07/18 08:05:54;;;;;;;11.13;6.55;;;845.10;1996.80;;;;;;5034946;28;20965;-70
2023/07/18 08:08:20;;;;;;;11.68;7.13;;;844.90;1971.20;;;;;;5034742;28;20383;-70
2023/07/18 08:10:45;;;;;;;9.50;6.53;;;820.10;1971.20;;;;;;5034970;28;20467;-73
2023/07/18 08:13:14;;;;;;;11.88;6.63;;;844.80;2022.40;;;;;;5035021;28;20058;-74
2023/07/18 08:15:39;;;;;;;10.85;7.55;;;820.10;1996.80;;;;;;5035136;28;20033;-76
2023/07/18 08:18:05;;;;;;;7.85;6.32;;;820.10;1971.20;;;;;;5034830;28;20033;-76
2023/07/18 08:20:32;;;;;;;8.35;6.72;;;820.10;1996.80;;;;;;5034794;28;20549;-69
2023/07/18 08:22:58;;;;;;;7.75;6.95;;;820.10;1971.20;;;;;;5032297;28;20032;-79
2023/07/18 08:25:23;;;;;;;13.30;6.45;;;820.10;1971.20;;;;;;5032378;28;20379;-73
2023/07/18 08:27:49;;;;;;;10.98;6.35;;;820.10;1996.80;;;;;;5034752;28;20447;-72
2023/07/18 08:30:15;;;;;;;13.27;6.72;;;820.10;2022.40;;;;;;5034335;28;20037;-73
2023/07/18 08:32:41;;;;;;;9.35;6.97;;;820.10;1996.80;;;;;;5034270;28;20044;-76
2023/07/18 08:35:07;;;;;;;8.60;6.43;;;820.10;1971.20;;;;;;5034124;28;20502;-71
2023/07/18 08:37:32;;;;;;;9.75;7.82;;;820.10;1971.20;;;;;;5033530;28;20505;-72
2023/07/18 08:39:58;;;;;;;10.82;7.90;;;844.80;2022.40;;;;;;5034678;28;20041;-71
2023/07/18 08:42:26;;;;;;;12.10;6.68;;;844.90;1971.20;;;;;;5034171;28;20475;-70
2023/07/18 08:44:54;;;;;;;9.25;7.15;;;820.00;1971.20;;;;;;5034343;28;20029;-71
2023/07/18 08:47:22;;;;;;;10.18;7.15;;;845.00;1945.60;;;;;;5016553;28;20072;-76
2023/07/18 08:49:48;;;;;;;7.95;7.15;;;844.90;1945.60;;;;;;5034267;28;20034;-76
2023/07/18 08:52:14;;;;;;;9.15;6.85;;;845.00;1920.00;;;;;;5033948;28;20133;-82
2023/07/18 08:54:40;;;;;;;7.97;7.15;;;845.10;1971.20;;;;;;5034545;28;20032;-79
2023/07/18 08:57:06;;;;;;;7.47;5.93;;;845.00;1971.20;;;;;;5034112;28;20029;-73
2023/07/18 08:59:33;;;;;;;8.07;6.78;;;845.20;2022.40;;;;;;5034017;28;20041;-70
2023/07/18 09:01:59;;;;;;;11.95;6.53;;;845.20;1996.80;;;;;;5033717;28;20032;-77
2023/07/18 09:04:24;;;;;;;10.50;6.47;;;845.20;1971.20;;;;;;5034226;28;20446;-71
2023/07/18 09:07:02;;;;;;;10.73;7.20;;;845.20;1868.80;;;;;;5033945;28;20029;-73
2023/07/18 09:09:28;;;;;;;11.57;7.53;;;845.30;1996.80;;;;;;5034655;28;20025;-71
2023/07/18 09:11:56;;;;;;;9.70;6.88;;;845.30;1971.20;;;;;;5033597;28;20021;-73
2023/07/18 09:14:23;;;;;;;8.75;6.25;;;845.40;1945.60;;;;;;5033426;28;20099;-73
2023/07/18 09:16:49;;;;;;;10.23;6.28;;;845.60;1971.20;;;;;;5033703;28;20026;-71
2023/07/18 09:19:15;;;;;;;10.43;6.13;;;845.70;1843.20;;;;;;5026648;28;20120;-73
2023/07/18 09:21:41;;;;;;;7.97;6.38;;;845.70;1868.80;;;;;;5033002;28;20028;-72
2023/07/18 09:24:06;;;;;;;9.75;6.40;;;845.70;1843.20;;;;;;5033859;28;20032;-73
2023/07/18 09:26:32;;;;;;;10.52;5.97;;;845.70;1868.80;;;;;;5033380;28;20088;-75
2023/07/18 09:28:58;;;;;;;8.98;5.93;;;870.40;1843.20;;;;;;5033429;28;20483;-74
2023/07/18 09:31:25;;;;;;;8.15;5.60;;;870.50;1817.60;;;;;;5033191;28;20033;-75
2023/07/18 09:33:54;;;;;;;7.10;5.53;;;870.60;1843.20;;;;;;5033349;28;20036;-80
2023/07/18 09:36:22;;;;;;;12.23;6.20;;;870.60;1792.00;;;;;;5033347;28;20060;-74
2023/07/18 09:38:49;;;;;;;9.25;5.63;;;870.70;1792.00;;;;;;5033670;28;20033;-79
2023/07/18 09:41:19;;;;;;;8.40;6.15;;;870.80;1766.40;;;;;;5033468;28;20037;-73
2023/07/18 09:43:45;;;;;;;8.48;5.80;;;870.90;1715.20;;;;;;5033266;28;20072;-71
2023/07/18 09:46:15;;;;;;;10.25;5.25;;;870.90;1740.80;;;;;;5029075;28;20052;-74
2023/07/18 09:48:43;;;;;;;6.93;5.75;;;871.10;1740.80;;;;;;5033130;28;20100;-75
2023/07/18 09:51:15;;;;;;;7.90;4.93;;;871.10;1664.00;;;;;;5033555;28;20064;-71
2023/07/18 09:53:48;;;;;;;7.22;5.78;;;871.20;1664.00;;;;;;5033286;28;20029;-80
2023/07/18 09:56:15;;;;;;;9.48;5.85;;;896.10;1612.80;;;;;;5033167;28;20040;-74
2023/07/18 09:58:43;;;;;;;6.63;5.40;;;896.10;1664.00;;;;;;5032757;28;20027;-70
2023/07/18 10:01:11;;;;;;;7.60;5.53;;;896.40;1638.40;;;;;;5033126;28;20034;-78
2023/07/18 10:03:39;;;;;;;7.57;5.18;;;896.50;1638.40;;;;;;5032712;28;20538;-72
2023/07/18 10:06:10;;;;;;;10.57;5.55;;;896.60;1587.20;;;;;;5033258;28;20491;-78
2023/07/18 10:08:38;;;;;;;5.88;4.90;;;896.90;1587.20;;;;;;5033277;28;20048;-79
2023/07/18 10:11:07;;;;;;;7.32;4.90;;;921.60;1587.20;;;;;;5032683;28;20037;-74
2023/07/18 10:14:02;;;;;;;8.70;5.93;;;896.90;1561.60;;;;;;5023901;28;20047;-74
2023/07/18 10:16:28;;;;;;;8.25;5.07;;;921.70;1587.20;;;;;;5030091;28;20071;-70
2023/07/18 10:18:54;;;;;;;8.20;5.85;;;922.00;1536.00;;;;;;5031902;28;20045;-71
2023/07/18 10:21:31;;;;;;;8.05;4.70;;;922.00;1561.60;;;;;;5033202;28;20033;-71
2023/07/18 10:24:10;;;;;;;6.25;4.60;;;922.30;1510.40;;;;;;5033016;28;20497;-72
2023/07/18 10:26:36;;;;;;;7.88;4.68;;;947.80;1459.20;;;;;;5023533;28;20034;-73
2023/07/18 10:29:03;;;;;;;6.15;4.32;;;947.40;1459.20;;;;;;5007878;28;20044;-76
2023/07/18 10:31:30;;;;;;;6.30;4.85;;;973.00;1382.40;;;;;;5032181;28;20022;-70
2023/07/18 10:34:18;;;;;;;6.57;4.55;;;972.90;1356.80;;;;;;5032290;28;20017;-71
2023/07/18 10:36:58;;;;;;;5.80;4.60;;;973.20;1408.00;;;;;;5030734;28;20451;-72
2023/07/18 10:39:48;;;;;;;7.63;4.65;;;973.10;1408.00;;;;;;5032612;28;20124;-71
2023/07/18 10:42:20;;;;;;;8.70;4.93;;;973.70;1331.20;;;;;;5031509;28;20124;-73
2023/07/18 10:44:55;;;;;;;6.35;4.97;;;973.30;1356.80;;;;;;5032155;28;20075;-75
2023/07/18 10:47:20;;;;;;;6.13;4.97;;;973.50;1280.00;;;;;;5032081;28;20079;-76
2023/07/18 10:49:49;;;;;;;7.72;4.60;;;973.50;1280.00;;;;;;5032660;28;20030;-73
2023/07/18 10:52:16;;;;;;;5.35;4.53;;;973.30;1305.60;;;;;;5014407;28;20025;-76
2023/07/18 10:54:51;;;;;;;8.55;4.95;;;973.10;1331.20;;;;;;5032793;28;20029;-73
2023/07/18 10:57:22;;;;;;;5.97;4.45;;;973.10;1331.20;;;;;;5032062;28;20030;-74
2023/07/18 10:59:48;;;;;;;7.68;5.22;;;973.20;1305.60;;;;;;5033406;28;20042;-78
2023/07/18 11:02:14;;;;;;;9.20;5.22;;;973.20;1280.00;;;;;;5035894;28;20039;-71
2023/07/18 11:04:39;;;;;;;5.43;4.30;;;973.20;1280.00;;;;;;5036121;28;20045;-71
2023/07/18 11:07:05;;;;;;;6.78;4.28;;;973.00;1305.60;;;;;;5035797;28;20025;-73
2023/07/18 11:09:35;;;;;;;7.35;4.60;;;973.20;1305.60;;;;;;5036513;28;20071;-71
2023/07/18 11:12:02;;;;;;;6.50;4.47;;;973.10;1280.00;;;;;;5035605;28;20030;-73
2023/07/18 11:14:40;;;;;;;10.45;4.93;;;973.10;1280.00;;;;;;5035600;28;20053;-72
2023/07/18 11:17:25;;;;;;;8.00;4.63;;;973.00;1254.40;;;;;;5018045;28;20434;-76
2023/07/18 11:19:55;;;;;;;6.18;4.32;;;973.00;1254.40;;;;;;5035598;28;20038;-73
2023/07/18 11:22:21;;;;;;;7.10;4.28;;;973.20;1228.80;;;;;;5035733;28;20041;-74
2023/07/18 11:24:47;;;;;;;9.20;4.60;;;973.30;1228.80;;;;;;5036398;28;20364;-73
2023/07/18 11:27:24;;;;;;;6.03;4.18;;;973.20;1228.80;;;;;;5035573;28;20056;-77
2023/07/18 11:29:54;;;;;;;7.43;4.90;;;973.30;1203.20;;;;;;5035623;28;20089;-72
2023/07/18 11:32:39;;;;;;;6.93;4.35;;;973.30;1152.00;;;;;;5038222;28;20026;-72
2023/07/18 11:35:08;;;;;;;5.93;5.07;;;973.20;1254.40;;;;;;5035423;28;20044;-72
2023/07/18 11:37:35;;;;;;;5.05;4.22;;;973.10;1280.00;;;;;;5035398;28;20052;-74
2023/07/18 11:40:01;;;;;;;6.63;4.60;;;973.10;1203.20;;;;;;5036155;28;20040;-75
2023/07/18 11:42:49;;;;;;;7.25;4.07;;;973.20;1228.80;;;;;;5009321;28;20034;-77
2023/07/18 11:45:17;;;;;;;4.82;3.75;;;973.30;1203.20;;;;;;5024022;28;20034;-71
2023/07/18 11:47:45;;;;;;;9.02;5.03;;;973.50;1177.60;;;;;;5017454;28;20506;-72
2023/07/18 11:50:12;;;;;;;8.73;5.38;;;973.30;1203.20;;;;;;5035431;28;20036;-72
2023/07/18 11:52:39;;;;;;;7.97;4.38;;;973.40;1203.20;;;;;;5035036;28;20084;-71
2023/07/18 11:55:05;;;;;;;7.45;4.15;;;973.20;1228.80;;;;;;5035789;28;20479;-71
2023/07/18 11:57:31;;;;;;;6.60;4.50;;;973.20;1228.80;;;;;;5035108;28;20029;-73
2023/07/18 11:59:57;;;;;;;6.40;4.55;;;973.40;1228.80;;;;;;5016434;28;20567;-72
2023/07/18 12:02:22;;;;;;;5.82;4.00;;;973.30;1203.20;;;;;;5032528;28;20029;-70
2023/07/18 12:04:48;;;;;;;5.50;4.40;;;973.20;1203.20;;;;;;5016501;28;20044;-71
2023/07/18 12:07:14;;;;;;;6.88;4.97;;;973.20;1203.20;;;;;;5028130;28;20053;-72
2023/07/18 12:09:39;;;;;;;10.63;4.97;;;973.40;1152.00;;;;;;5036005;28;20025;-73